createdAt,value
2022-08-04T00:02:53.367Z,1.98
2022-08-04T00:05:48.695Z,1.70
2022-08-04T00:08:38.714Z,2.20
2022-08-04T00:11:29.319Z,1.80
2022-08-04T00:14:16.921Z,1.83
2022-08-04T00:17:12.771Z,2.45
2022-08-04T00:20:04.833Z,1.80
2022-08-04T00:22:53.402Z,2.00
2022-08-04T00:25:41.206Z,1.90
2022-08-04T00:28:28.458Z,1.80
2022-08-04T00:31:15.970Z,1.70
2022-08-04T00:34:01.602Z,2.10
2022-08-04T00:36:47.571Z,1.70
2022-08-04T00:39:33.501Z,2.17
2022-08-04T00:42:34.518Z,2.38
2022-08-04T00:46:15.358Z,2.10
2022-08-04T00:49:22.851Z,1.40
2022-08-04T00:52:33.387Z,1.50
2022-08-04T00:55:57.003Z,1.63
2022-08-04T00:59:12.185Z,1.60
2022-08-04T01:02:10.484Z,2.35
2022-08-04T01:05:38.040Z,1.83
2022-08-04T01:08:35.809Z,1.80
2022-08-04T01:11:57.165Z,1.70
2022-08-04T01:15:10.428Z,1.60
2022-08-04T01:18:02.136Z,2.15
2022-08-04T01:21:15.636Z,2.10
2022-08-04T01:24:26.449Z,2.35
2022-08-04T01:27:30.525Z,2.10
2022-08-04T01:30:18.542Z,2.00
2022-08-04T01:33:09.080Z,2.28
2022-08-04T01:36:04.660Z,2.20
2022-08-04T01:38:50.326Z,2.45
2022-08-04T01:41:36.239Z,1.70
2022-08-04T01:44:23.687Z,2.33
2022-08-04T01:47:10.216Z,2.00
2022-08-04T01:50:06.725Z,1.98
2022-08-04T01:52:54.535Z,2.10
2022-08-04T01:55:54.805Z,1.90
2022-08-04T01:58:41.383Z,1.90
2022-08-04T02:01:26.933Z,1.60
2022-08-04T02:04:23.390Z,1.90
2022-08-04T02:07:18.449Z,2.00
2022-08-04T02:10:08.587Z,2.38
2022-08-04T02:13:24.733Z,2.05
2022-08-04T02:16:33.511Z,1.88
2022-08-04T02:19:36.033Z,2.33
2022-08-04T02:22:24.982Z,2.20
2022-08-04T02:25:11.884Z,1.77
2022-08-04T02:28:09.128Z,1.92
2022-08-04T02:31:15.817Z,1.95
2022-08-04T02:34:16.582Z,2.42
2022-08-04T02:37:04.878Z,2.08
2022-08-04T02:39:53.926Z,1.85
2022-08-04T02:42:39.673Z,1.83
2022-08-04T02:45:27.142Z,1.60
2022-08-04T02:48:30.386Z,1.90
2022-08-04T02:51:20.098Z,1.52
2022-08-04T02:54:07.716Z,1.58
2022-08-04T02:56:56.119Z,1.63
2022-08-04T03:00:03.549Z,1.85
2022-08-04T03:03:16.829Z,1.83
2022-08-04T03:06:28.688Z,1.45
2022-08-04T03:09:47.049Z,2.20
2022-08-04T03:12:51.488Z,1.50
2022-08-04T03:15:44.650Z,1.67
2022-08-04T03:18:48.881Z,2.17
2022-08-04T03:21:52.935Z,2.08
2022-08-04T03:25:08.816Z,1.80
2022-08-04T03:28:26.445Z,2.08
2022-08-04T03:31:37.950Z,1.75
2022-08-04T03:34:23.191Z,1.75
2022-08-04T03:37:27.620Z,1.85
2022-08-04T03:40:27.911Z,2.20
2022-08-04T03:43:59.405Z,1.92
2022-08-04T03:46:57.935Z,2.00
2022-08-04T03:50:04.904Z,2.15
2022-08-04T03:53:21.817Z,1.73
2022-08-04T03:56:47.921Z,1.55
2022-08-04T03:59:36.591Z,2.20
2022-08-04T04:02:39.756Z,1.90
2022-08-04T04:05:58.800Z,1.60
2022-08-04T04:09:02.747Z,2.15
2022-08-04T04:12:19.232Z,1.77
2022-08-04T04:15:22.939Z,3.70
2022-08-04T04:18:09.615Z,1.98
2022-08-04T04:21:29.242Z,2.70
2022-08-04T04:25:03.141Z,2.47
2022-08-04T04:28:45.080Z,2.50
2022-08-04T04:31:35.959Z,2.58
2022-08-04T04:35:05.772Z,2.85
2022-08-04T04:38:29.654Z,2.60
2022-08-04T04:41:23.775Z,3.03
2022-08-04T04:44:35.362Z,2.65
2022-08-04T04:47:43.170Z,3.00
2022-08-04T04:51:16.509Z,2.97
2022-08-04T04:54:21.687Z,2.85
2022-08-04T04:57:15.477Z,2.40
2022-08-04T05:03:13.726Z,2.55
2022-08-04T05:05:59.334Z,2.78
2022-08-04T05:09:07.902Z,3.13
2022-08-04T05:14:32.957Z,2.85
2022-08-04T05:15:16.649Z,2.63
2022-08-04T05:18:06.058Z,2.78
2022-08-04T05:21:23.628Z,3.05
2022-08-04T05:24:12.207Z,1.95
2022-08-04T05:27:03.793Z,2.40
2022-08-04T05:30:04.035Z,2.08
2022-08-04T05:33:04.182Z,3.05
2022-08-04T05:36:21.727Z,2.85
2022-08-04T05:39:02.355Z,2.20
2022-08-04T05:41:55.521Z,2.60
2022-08-04T05:44:50.416Z,2.30
2022-08-04T05:47:37.288Z,2.43
2022-08-04T05:50:23.788Z,3.00
2022-08-04T05:53:11.316Z,2.40
2022-08-04T05:55:59.677Z,2.42
2022-08-04T05:58:47.112Z,2.25
2022-08-04T06:01:56.611Z,2.38
2022-08-04T06:04:42.649Z,2.30
2022-08-04T06:07:28.795Z,2.83
2022-08-04T06:10:14.559Z,2.42
2022-08-04T06:13:06.918Z,1.70
2022-08-04T06:15:56.328Z,2.30
2022-08-04T06:20:04.007Z,1.83
2022-08-04T06:21:52.349Z,1.85
2022-08-04T06:24:39.873Z,1.95
2022-08-04T06:27:25.579Z,1.55
2022-08-04T06:30:14.478Z,1.52
2022-08-04T06:33:05.003Z,1.88
2022-08-04T06:35:55.268Z,2.13
2022-08-04T06:38:41.832Z,2.58
2022-08-04T06:41:30.292Z,2.22
2022-08-04T06:44:16.167Z,2.33
2022-08-04T06:47:02.474Z,1.95
2022-08-04T06:51:24.723Z,1.65
2022-08-04T06:52:58.150Z,1.55
2022-08-04T06:55:45.944Z,1.42
2022-08-04T06:58:32.716Z,2.00
2022-08-04T07:01:20.855Z,2.25
2022-08-04T07:04:06.674Z,2.47
2022-08-04T07:06:52.570Z,1.80
2022-08-04T07:09:39.361Z,2.38
2022-08-04T07:12:26.077Z,2.10
2022-08-04T07:15:14.351Z,1.77
2022-08-04T07:18:01.995Z,1.85
2022-08-04T07:20:49.252Z,2.28
2022-08-04T07:23:35.267Z,2.00
2022-08-04T07:26:26.442Z,2.05
2022-08-04T07:29:12.358Z,2.40
2022-08-04T07:32:01.083Z,2.05
2022-08-04T07:34:49.990Z,2.13
2022-08-04T07:37:38.856Z,2.40
2022-08-04T07:40:25.515Z,1.90
2022-08-04T07:43:11.068Z,1.90
2022-08-04T07:45:56.835Z,2.30
2022-08-04T07:48:46.198Z,2.25
2022-08-04T07:51:32.289Z,1.80
2022-08-04T07:54:18.439Z,1.73
2022-08-04T07:57:04.253Z,1.85
2022-08-04T07:59:58.065Z,1.95
2022-08-04T08:02:48.353Z,2.28
2022-08-04T08:05:34.908Z,1.60
2022-08-04T08:08:40.613Z,1.75
2022-08-04T08:11:26.208Z,2.15
2022-08-04T08:14:32.003Z,2.92
2022-08-04T08:17:17.587Z,1.52
2022-08-04T08:20:03.227Z,2.10
2022-08-04T08:22:49.063Z,1.65
2022-08-04T08:25:35.799Z,1.70
2022-08-04T08:28:21.115Z,1.98
2022-08-04T08:31:07.332Z,1.88
2022-08-04T08:33:53.657Z,1.85
2022-08-04T08:37:03.752Z,2.08
2022-08-04T08:39:59.569Z,1.60
2022-08-04T08:43:00.090Z,2.17
2022-08-04T08:46:38.851Z,2.47
2022-08-04T08:50:00.447Z,2.17
2022-08-04T08:53:11.506Z,2.30
2022-08-04T08:56:12.159Z,1.73
2022-08-04T08:59:18.907Z,2.28
2022-08-04T09:02:31.757Z,1.58
2022-08-04T09:05:55.601Z,1.88
2022-08-04T09:09:11.212Z,2.13
2022-08-04T09:12:07.436Z,1.98
2022-08-04T09:15:15.953Z,1.83
2022-08-04T09:18:18.855Z,2.22
2022-08-04T09:21:33.718Z,1.85
2022-08-04T09:24:36.561Z,1.60
2022-08-04T09:27:50.387Z,1.90
2022-08-04T09:31:00.234Z,1.83
2022-08-04T09:34:11.605Z,1.70
2022-08-04T09:37:13.407Z,2.03
2022-08-04T09:40:07.760Z,1.50
2022-08-04T09:43:16.439Z,1.63
2022-08-04T09:46:15.197Z,1.73
2022-08-04T09:49:10.772Z,1.60
2022-08-04T09:52:08.016Z,1.60
2022-08-04T09:55:04.721Z,1.10
2022-08-04T09:58:17.586Z,1.58
2022-08-04T10:04:04.013Z,1.40
2022-08-04T10:07:11.554Z,1.40
2022-08-04T10:10:37.279Z,1.23
2022-08-04T10:13:48.948Z,1.98
2022-08-04T10:16:44.320Z,1.58
2022-08-04T10:19:36.829Z,1.10
2022-08-04T10:22:44.790Z,1.50
2022-08-04T10:26:07.571Z,1.45
2022-08-04T10:29:00.748Z,1.40
2022-08-04T10:34:59.987Z,1.58
2022-08-04T10:38:13.429Z,1.65
2022-08-04T10:41:06.953Z,1.27
2022-08-04T10:44:24.816Z,1.55
2022-08-04T10:47:16.791Z,1.80
2022-08-04T10:50:03.932Z,1.88
2022-08-04T10:53:19.238Z,1.38
2022-08-04T10:56:13.359Z,1.40
2022-08-04T10:59:06.866Z,1.20
2022-08-04T11:02:08.650Z,1.38
2022-08-04T11:05:05.109Z,1.23
2022-08-04T11:07:57.568Z,1.88
2022-08-04T11:10:55.357Z,1.40
2022-08-04T11:13:47.338Z,1.40
2022-08-04T11:16:48.612Z,1.30
2022-08-04T11:20:34.202Z,1.40
2022-08-04T11:23:20.875Z,1.38
2022-08-04T11:26:24.405Z,1.48
2022-08-04T11:29:24.739Z,1.40
2022-08-04T11:32:18.792Z,1.48
2022-08-04T11:35:09.543Z,2.13
2022-08-04T11:38:05.118Z,1.30
2022-08-04T11:41:02.552Z,1.20
2022-08-04T11:44:03.954Z,1.38
2022-08-04T11:49:56.443Z,1.10
2022-08-04T11:52:45.291Z,1.17
2022-08-04T11:56:08.204Z,1.40
2022-08-04T11:58:40.273Z,1.17
2022-08-04T12:01:28.855Z,1.55
2022-08-04T12:04:24.572Z,1.13
2022-08-04T12:07:52.065Z,1.10
2022-08-04T12:11:10.626Z,1.48
2022-08-04T12:14:09.859Z,1.00
2022-08-04T12:17:04.183Z,1.20
2022-08-04T12:20:03.208Z,1.10
2022-08-04T12:22:52.046Z,1.02
2022-08-04T12:25:44.959Z,1.75
2022-08-04T12:29:08.146Z,1.60
2022-08-04T12:31:52.773Z,1.60
2022-08-04T12:34:46.133Z,1.42
2022-08-04T12:37:37.794Z,1.25
2022-08-04T12:40:30.689Z,1.53
2022-08-04T12:43:20.021Z,1.23
2022-08-04T12:46:24.924Z,1.52
2022-08-04T12:49:13.766Z,1.33
2022-08-04T12:52:07.816Z,1.25
2022-08-04T12:54:55.675Z,1.17
2022-08-04T12:57:42.611Z,1.10
2022-08-04T13:00:40.792Z,1.30
2022-08-04T13:03:30.822Z,1.15
2022-08-04T13:06:21.310Z,1.02
2022-08-04T13:09:18.377Z,1.27
2022-08-04T13:12:12.131Z,1.10
2022-08-04T13:15:18.114Z,1.17
2022-08-04T13:18:14.841Z,0.90
2022-08-04T13:21:20.659Z,1.40
2022-08-04T13:24:20.917Z,2.30
2022-08-04T13:27:20.217Z,1.13
2022-08-04T13:30:06.268Z,1.40
2022-08-04T13:32:58.190Z,0.80
2022-08-04T13:35:55.475Z,0.90
2022-08-04T13:38:58.286Z,1.45
2022-08-04T13:41:56.927Z,1.02
2022-08-04T13:44:49.235Z,1.08
2022-08-04T13:47:39.182Z,2.08
2022-08-04T13:50:32.245Z,1.40
2022-08-04T13:53:22.096Z,1.52
2022-08-04T13:56:13.366Z,1.40
2022-08-04T13:59:01.405Z,1.13
2022-08-04T14:01:59.174Z,1.60
2022-08-04T14:04:54.326Z,1.65
2022-08-04T14:07:47.074Z,1.40
2022-08-04T14:10:33.969Z,1.17
2022-08-04T14:13:41.953Z,0.98
2022-08-04T14:16:27.935Z,0.90
2022-08-04T14:19:13.661Z,1.27
2022-08-04T14:21:59.340Z,1.27
2022-08-04T14:24:59.986Z,1.23
2022-08-04T14:27:45.690Z,1.55
2022-08-04T14:30:35.533Z,0.80
2022-08-04T14:34:00.987Z,1.20
2022-08-04T14:37:13.135Z,1.40
2022-08-04T14:40:18.571Z,1.07
2022-08-04T14:43:07.585Z,1.35
2022-08-04T14:46:04.864Z,1.23
2022-08-04T14:49:01.855Z,1.40
2022-08-04T14:51:53.460Z,1.30
2022-08-04T14:54:38.992Z,0.98
2022-08-04T14:57:24.782Z,1.00
2022-08-04T15:00:13.548Z,1.27
2022-08-04T15:03:09.219Z,0.93
2022-08-04T15:06:05.531Z,1.35
2022-08-04T15:08:54.610Z,0.95
2022-08-04T15:11:43.249Z,1.20
2022-08-04T15:14:36.841Z,1.02
2022-08-04T15:17:29.767Z,1.20
2022-08-04T15:23:10.990Z,0.85
2022-08-04T15:26:04.993Z,1.10
2022-08-04T15:32:09.430Z,0.95
2022-08-04T15:35:12.652Z,1.23
2022-08-04T15:38:12.280Z,1.30
2022-08-04T15:41:08.011Z,0.80
2022-08-04T15:44:46.980Z,1.10
2022-08-04T15:47:32.554Z,0.80
2022-08-04T15:50:31.542Z,1.63
2022-08-04T15:53:22.884Z,1.17
2022-08-04T15:56:38.803Z,1.55
2022-08-04T16:00:14.885Z,1.20
2022-08-04T16:03:53.202Z,1.05
2022-08-04T16:06:51.872Z,1.00
2022-08-04T16:09:45.660Z,1.15
2022-08-04T16:12:59.875Z,1.05
2022-08-04T16:16:12.573Z,1.42
2022-08-04T16:19:39.292Z,0.85
2022-08-04T16:22:34.066Z,0.82
2022-08-04T16:26:30.745Z,1.33
2022-08-04T16:29:26.411Z,1.27
2022-08-04T16:32:16.391Z,0.80
2022-08-04T16:35:04.758Z,0.80
2022-08-04T16:37:53.768Z,1.10
2022-08-04T16:40:44.302Z,1.30
2022-08-04T16:43:31.799Z,0.73
2022-08-04T16:46:40.823Z,1.13
2022-08-04T16:50:01.297Z,1.17
2022-08-04T16:52:48.982Z,1.35
2022-08-04T16:55:35.527Z,1.05
2022-08-04T16:58:30.239Z,1.63
2022-08-04T17:01:21.709Z,1.30
2022-08-04T17:04:18.474Z,0.93
2022-08-04T17:07:05.959Z,1.65
2022-08-04T17:09:52.495Z,1.48
2022-08-04T17:12:38.131Z,1.20
2022-08-04T17:15:25.038Z,1.70
2022-08-04T17:18:16.105Z,1.35
2022-08-04T17:21:16.036Z,1.45
2022-08-04T17:24:14.616Z,1.65
2022-08-04T17:27:04.559Z,1.30
2022-08-04T17:30:26.839Z,1.10
2022-08-04T17:33:15.026Z,1.15
2022-08-04T17:36:04.116Z,0.90
2022-08-04T17:38:56.390Z,0.80
2022-08-04T17:41:48.692Z,1.05
2022-08-04T17:44:38.880Z,1.05
2022-08-04T17:47:24.743Z,1.00
2022-08-04T17:50:11.553Z,1.40
2022-08-04T17:53:17.140Z,1.27
2022-08-04T17:56:27.214Z,1.40
2022-08-04T17:59:55.846Z,0.95
2022-08-04T18:02:36.618Z,0.95
2022-08-04T18:05:53.976Z,1.00
2022-08-04T18:08:45.631Z,0.90
2022-08-04T18:11:41.670Z,1.10
2022-08-04T18:14:39.382Z,1.10
2022-08-04T18:18:20.800Z,0.88
2022-08-04T18:20:41.133Z,0.98
2022-08-04T18:23:32.104Z,0.95
2022-08-04T18:26:18.553Z,1.02
2022-08-04T18:29:30.947Z,1.10
2022-08-04T18:32:15.273Z,1.25
2022-08-04T18:35:07.483Z,0.90
2022-08-04T18:38:06.433Z,1.45
2022-08-04T18:43:59.529Z,0.77
2022-08-04T18:46:52.957Z,0.77
2022-08-04T18:50:39.968Z,1.17
2022-08-04T18:52:47.424Z,1.77
2022-08-04T18:55:56.441Z,0.90
2022-08-04T18:58:45.317Z,1.20
2022-08-04T19:02:13.455Z,0.90
2022-08-04T19:04:37.822Z,0.90
2022-08-04T19:08:02.585Z,1.15
2022-08-04T19:10:28.687Z,1.33
2022-08-04T19:13:25.248Z,1.17
2022-08-04T19:16:16.753Z,0.90
2022-08-04T19:19:06.820Z,1.02
2022-08-04T19:22:00.836Z,1.20
2022-08-04T19:24:48.945Z,1.00
2022-08-04T19:27:38.826Z,0.88
2022-08-04T19:30:25.946Z,1.00
2022-08-04T19:33:11.994Z,0.80
2022-08-04T19:35:57.196Z,0.77
2022-08-04T19:38:43.632Z,0.47
2022-08-04T19:41:32.269Z,0.95
2022-08-04T19:44:44.463Z,1.20
2022-08-04T19:48:16.688Z,0.95
2022-08-04T19:50:37.665Z,1.02
2022-08-04T19:53:37.107Z,1.08
2022-08-04T19:56:25.759Z,0.95
2022-08-04T19:59:11.574Z,1.00
2022-08-04T20:01:57.267Z,0.77
2022-08-04T20:04:42.867Z,0.60
2022-08-04T20:07:30.101Z,0.80
2022-08-04T20:10:17.287Z,0.80
2022-08-04T20:13:10.469Z,0.80
2022-08-04T20:15:57.962Z,0.98
2022-08-04T20:18:56.820Z,0.90
2022-08-04T20:21:55.023Z,1.10
2022-08-04T20:24:47.999Z,0.77
2022-08-04T20:27:59.348Z,0.60
2022-08-04T20:30:47.596Z,0.82
2022-08-04T20:33:34.631Z,0.98
2022-08-04T20:36:23.016Z,1.08
2022-08-04T20:39:09.827Z,0.95
2022-08-04T20:41:55.736Z,1.00
2022-08-04T20:44:42.325Z,1.42
2022-08-04T20:47:35.062Z,0.80
2022-08-04T20:50:30.237Z,1.10
2022-08-04T20:53:16.999Z,1.10
2022-08-04T20:56:03.181Z,1.10
2022-08-04T20:58:53.080Z,1.00
2022-08-04T21:01:38.616Z,0.90
2022-08-04T21:04:35.517Z,1.00
2022-08-04T21:07:22.850Z,1.05
2022-08-04T21:10:08.536Z,1.33
2022-08-04T21:12:54.856Z,1.00
2022-08-04T21:15:59.380Z,1.00
2022-08-04T21:18:45.421Z,0.93
2022-08-04T21:21:35.693Z,0.80
2022-08-04T21:24:26.188Z,1.20
2022-08-04T21:27:12.371Z,0.88
2022-08-04T21:30:08.862Z,0.70
2022-08-04T21:33:04.431Z,0.80
2022-08-04T21:35:54.168Z,0.65
2022-08-04T21:38:41.863Z,1.02
2022-08-04T21:42:10.070Z,1.40
2022-08-04T21:44:44.002Z,0.90
2022-08-04T21:47:45.983Z,1.13
2022-08-04T21:50:35.000Z,0.95
2022-08-04T21:53:21.156Z,0.73
2022-08-04T21:56:08.329Z,1.15
2022-08-04T21:58:55.109Z,0.90
2022-08-04T22:01:50.875Z,1.08
2022-08-04T22:04:51.213Z,0.70
2022-08-04T22:07:50.415Z,0.50
2022-08-04T22:10:38.266Z,0.75
2022-08-04T22:13:23.723Z,0.80
2022-08-04T22:16:32.515Z,0.90
2022-08-04T22:19:24.021Z,0.80
2022-08-04T22:22:29.068Z,0.95
2022-08-04T22:28:08.042Z,0.80
2022-08-04T22:30:53.485Z,0.80
2022-08-04T22:33:54.425Z,0.77
2022-08-04T22:36:41.169Z,0.77
2022-08-04T22:39:27.740Z,0.93
2022-08-04T22:42:13.775Z,0.52
2022-08-04T22:44:59.429Z,0.80
2022-08-04T22:47:53.372Z,0.77
2022-08-04T22:50:39.250Z,0.68
2022-08-04T22:53:25.347Z,1.20
2022-08-04T22:56:11.271Z,0.80
2022-08-04T22:58:56.819Z,0.90
2022-08-04T23:02:00.791Z,0.70
2022-08-04T23:04:49.962Z,0.70
2022-08-04T23:07:49.088Z,0.80
2022-08-04T23:10:36.975Z,0.73
2022-08-04T23:13:27.210Z,0.80
2022-08-04T23:16:12.940Z,1.15
2022-08-04T23:18:58.765Z,0.85
2022-08-04T23:21:47.246Z,0.80
2022-08-04T23:24:33.371Z,1.05
2022-08-04T23:27:19.773Z,0.82
2022-08-04T23:30:06.255Z,1.10
2022-08-04T23:32:52.836Z,0.90
2022-08-04T23:35:38.217Z,0.98
2022-08-04T23:38:30.361Z,1.15
2022-08-04T23:41:18.759Z,0.85
2022-08-04T23:44:05.564Z,0.98
2022-08-04T23:47:03.634Z,0.50
2022-08-04T23:49:49.452Z,0.68
2022-08-04T23:52:34.992Z,0.95
2022-08-04T23:55:21.442Z,0.88
2022-08-04T23:58:19.085Z,0.80
